createdAt,value
2022-11-19T00:00:12.653Z,6.20
2022-11-19T00:02:40.868Z,5.90
2022-11-19T00:05:09.783Z,6.47
2022-11-19T00:07:39.475Z,5.57
2022-11-19T00:10:08.528Z,6.33
2022-11-19T00:13:05.994Z,6.73
2022-11-19T00:15:36.455Z,7.37
2022-11-19T00:18:06.108Z,6.80
2022-11-19T00:20:36.060Z,6.00
2022-11-19T00:23:05.687Z,6.40
2022-11-19T00:25:34.857Z,6.70
2022-11-19T00:28:03.109Z,6.87
2022-11-19T00:30:47.520Z,7.60
2022-11-19T00:33:16.588Z,5.80
2022-11-19T00:35:45.053Z,6.43
2022-11-19T00:38:14.629Z,6.90
2022-11-19T00:40:43.855Z,6.37
2022-11-19T00:43:29.407Z,6.37
2022-11-19T00:45:57.605Z,7.07
2022-11-19T00:48:25.840Z,6.60
2022-11-19T00:50:54.161Z,7.80
2022-11-19T00:53:23.763Z,7.03
2022-11-19T00:55:52.032Z,7.03
2022-11-19T00:58:20.416Z,6.93
2022-11-19T01:00:49.534Z,7.10
2022-11-19T01:03:17.780Z,6.13
2022-11-19T01:05:47.956Z,6.13
2022-11-19T01:08:16.202Z,6.80
2022-11-19T01:10:46.031Z,7.13
2022-11-19T01:13:31.989Z,6.50
2022-11-19T01:16:00.292Z,6.70
2022-11-19T01:18:29.817Z,6.90
2022-11-19T01:20:58.134Z,6.73
2022-11-19T01:23:27.536Z,6.73
2022-11-19T01:25:57.602Z,6.60
2022-11-19T01:28:25.995Z,7.73
2022-11-19T01:30:54.450Z,6.77
2022-11-19T01:33:23.506Z,7.13
2022-11-19T01:36:02.824Z,6.77
2022-11-19T01:38:31.702Z,7.83
2022-11-19T01:41:02.341Z,7.60
2022-11-19T01:43:46.489Z,7.70
2022-11-19T01:46:17.342Z,6.87
2022-11-19T01:48:51.983Z,7.93
2022-11-19T01:51:26.639Z,7.37
2022-11-19T01:54:00.674Z,6.93
2022-11-19T01:56:33.887Z,7.97
2022-11-19T01:59:07.148Z,6.60
2022-11-19T02:01:35.845Z,8.10
2022-11-19T02:04:06.104Z,7.00
2022-11-19T02:06:35.671Z,6.90
2022-11-19T02:09:03.993Z,8.33
2022-11-19T02:12:21.126Z,7.17
2022-11-19T02:15:07.596Z,7.30
2022-11-19T02:17:59.683Z,7.57
2022-11-19T02:20:52.500Z,7.63
2022-11-19T02:24:25.833Z,7.03
2022-11-19T02:27:51.761Z,7.53
2022-11-19T02:30:22.031Z,7.20
2022-11-19T02:33:00.934Z,6.20
2022-11-19T02:35:42.210Z,6.97
2022-11-19T02:38:23.295Z,7.80
2022-11-19T02:40:58.040Z,7.20
2022-11-19T02:43:34.337Z,7.53
2022-11-19T02:46:10.130Z,7.30
2022-11-19T02:48:43.525Z,8.80
2022-11-19T02:51:15.614Z,8.10
2022-11-19T02:53:43.979Z,8.00
2022-11-19T02:56:17.867Z,7.97
2022-11-19T02:59:10.170Z,8.43
2022-11-19T03:02:00.966Z,7.83
2022-11-19T03:04:36.140Z,7.70
2022-11-19T03:07:09.819Z,8.57
2022-11-19T03:09:43.765Z,8.63
2022-11-19T03:12:23.910Z,7.57
2022-11-19T03:15:16.188Z,8.43
2022-11-19T03:18:04.338Z,7.97
2022-11-19T03:20:37.913Z,7.83
2022-11-19T03:23:12.657Z,7.60
2022-11-19T03:25:46.187Z,7.13
2022-11-19T03:28:17.310Z,7.83
2022-11-19T03:30:48.823Z,7.10
2022-11-19T03:33:25.086Z,8.03
2022-11-19T03:35:57.693Z,8.23
2022-11-19T03:38:32.221Z,7.70
2022-11-19T03:41:04.128Z,8.87
2022-11-19T03:43:37.687Z,7.70
2022-11-19T03:46:10.425Z,7.40
2022-11-19T03:48:42.251Z,8.30
2022-11-19T03:51:16.457Z,7.80
2022-11-19T03:53:45.015Z,8.93
2022-11-19T03:56:16.816Z,7.93
2022-11-19T03:58:47.426Z,7.67
2022-11-19T04:01:16.296Z,7.57
2022-11-19T04:04:07.612Z,7.73
2022-11-19T04:06:36.861Z,7.00
2022-11-19T04:09:05.315Z,7.40
2022-11-19T04:11:33.513Z,7.53
2022-11-19T04:14:01.735Z,7.73
2022-11-19T04:16:29.964Z,7.57
2022-11-19T04:18:59.522Z,7.73
2022-11-19T04:21:27.727Z,7.57
2022-11-19T04:23:56.103Z,7.20
2022-11-19T04:26:24.472Z,8.10
2022-11-19T04:28:53.227Z,7.23
2022-11-19T04:31:21.426Z,7.43
2022-11-19T04:33:50.503Z,7.47
2022-11-19T04:36:20.239Z,7.53
2022-11-19T04:38:48.442Z,7.70
2022-11-19T04:41:16.859Z,7.33
2022-11-19T04:43:45.090Z,7.50
2022-11-19T04:46:13.263Z,7.47
2022-11-19T04:48:41.545Z,7.23
2022-11-19T04:51:09.931Z,7.60
2022-11-19T04:53:39.872Z,7.37
2022-11-19T04:56:08.821Z,8.00
2022-11-19T04:58:37.491Z,7.90
2022-11-19T05:01:06.283Z,7.63
2022-11-19T05:03:34.776Z,8.37
2022-11-19T05:06:03.008Z,8.00
2022-11-19T05:08:31.276Z,7.70
2022-11-19T05:11:00.810Z,8.10
2022-11-19T05:13:29.054Z,9.03
2022-11-19T05:15:57.245Z,9.13
2022-11-19T05:18:25.770Z,8.63
2022-11-19T05:20:54.090Z,7.73
2022-11-19T05:23:22.561Z,7.53
2022-11-19T05:25:50.673Z,8.27
2022-11-19T05:28:32.723Z,8.00
2022-11-19T05:31:07.010Z,8.10
2022-11-19T05:33:35.220Z,7.30
2022-11-19T05:36:03.781Z,7.50
2022-11-19T05:38:32.021Z,8.43
2022-11-19T05:41:00.167Z,8.50
2022-11-19T05:43:29.854Z,8.00
2022-11-19T05:46:01.344Z,7.90
2022-11-19T05:48:29.595Z,8.60
2022-11-19T05:50:57.934Z,8.10
2022-11-19T05:53:26.190Z,8.60
2022-11-19T05:55:54.644Z,8.07
2022-11-19T05:58:23.038Z,8.77
2022-11-19T06:00:56.173Z,8.27
2022-11-19T06:03:24.344Z,8.77
2022-11-19T06:05:53.195Z,8.70
2022-11-19T06:08:21.526Z,8.30
2022-11-19T06:10:49.806Z,8.10
2022-11-19T06:13:18.143Z,8.13
2022-11-19T06:15:46.348Z,9.03
2022-11-19T06:18:16.143Z,8.30
2022-11-19T06:20:44.332Z,7.80
2022-11-19T06:23:12.573Z,8.93
2022-11-19T06:25:41.301Z,8.23
2022-11-19T06:28:09.513Z,9.47
2022-11-19T06:30:37.714Z,8.37
2022-11-19T06:33:05.863Z,8.73
2022-11-19T06:35:35.379Z,8.60
2022-11-19T06:38:03.615Z,8.67
2022-11-19T06:40:31.750Z,8.80
2022-11-19T06:42:59.977Z,9.27
2022-11-19T06:45:28.279Z,9.33
2022-11-19T06:47:56.434Z,8.47
2022-11-19T06:50:24.659Z,8.20
2022-11-19T06:52:54.281Z,8.70
2022-11-19T06:55:22.492Z,8.87
2022-11-19T06:57:50.987Z,9.03
2022-11-19T07:00:19.912Z,9.00
2022-11-19T07:02:48.596Z,9.27
2022-11-19T07:05:16.977Z,9.07
2022-11-19T07:07:45.251Z,8.80
2022-11-19T07:10:14.867Z,8.73
2022-11-19T07:12:43.095Z,9.13
2022-11-19T07:15:12.418Z,8.40
2022-11-19T07:17:42.303Z,9.70
2022-11-19T07:20:12.190Z,8.50
2022-11-19T07:22:42.446Z,8.93
2022-11-19T07:25:12.965Z,9.20
2022-11-19T07:27:46.597Z,9.53
2022-11-19T07:30:15.878Z,9.70
2022-11-19T07:32:44.443Z,8.87
2022-11-19T07:35:12.965Z,9.30
2022-11-19T07:37:41.164Z,9.67
2022-11-19T07:40:11.502Z,9.90
2022-11-19T07:42:50.929Z,9.60
2022-11-19T07:45:23.273Z,10.40
2022-11-19T07:47:52.004Z,10.57
2022-11-19T07:50:20.393Z,10.73
2022-11-19T07:52:48.608Z,10.83
2022-11-19T07:55:17.076Z,10.80
2022-11-19T07:57:48.027Z,10.63
2022-11-19T08:00:17.036Z,10.73
2022-11-19T08:02:46.802Z,10.83
2022-11-19T08:05:15.125Z,11.67
2022-11-19T08:07:43.644Z,11.53
2022-11-19T08:10:12.568Z,11.40
2022-11-19T08:12:40.812Z,12.20
2022-11-19T08:15:10.751Z,11.33
2022-11-19T08:17:56.745Z,11.57
2022-11-19T08:20:27.865Z,10.87
2022-11-19T08:22:56.034Z,11.33
2022-11-19T08:25:24.291Z,12.10
2022-11-19T08:27:52.545Z,10.90
2022-11-19T08:30:20.778Z,12.30
2022-11-19T08:32:49.084Z,11.27
2022-11-19T08:35:17.604Z,11.30
2022-11-19T08:37:48.400Z,11.27
2022-11-19T08:40:17.380Z,12.43
2022-11-19T08:42:59.904Z,11.50
2022-11-19T08:45:30.522Z,12.07
2022-11-19T08:48:00.606Z,12.60
2022-11-19T08:50:29.447Z,12.87
2022-11-19T08:53:02.100Z,12.03
2022-11-19T08:55:31.741Z,12.73
2022-11-19T08:58:04.386Z,11.23
2022-11-19T09:00:35.148Z,10.50
2022-11-19T09:03:03.473Z,11.60
2022-11-19T09:05:32.386Z,10.10
2022-11-19T09:08:02.379Z,10.80
2022-11-19T09:10:30.545Z,11.47
2022-11-19T09:12:58.798Z,10.70
2022-11-19T09:15:27.183Z,11.20
2022-11-19T09:17:55.479Z,10.63
2022-11-19T09:20:26.540Z,10.93
2022-11-19T09:22:54.859Z,10.40
2022-11-19T09:25:24.406Z,10.53
2022-11-19T09:27:52.617Z,11.73
2022-11-19T09:30:21.292Z,12.13
2022-11-19T09:32:49.549Z,11.87
2022-11-19T09:35:17.968Z,11.30
2022-11-19T09:37:46.320Z,12.70
2022-11-19T09:40:20.781Z,12.30
2022-11-19T09:43:03.664Z,11.47
2022-11-19T09:45:51.240Z,11.87
2022-11-19T09:48:32.592Z,10.40
2022-11-19T09:51:05.145Z,11.03
2022-11-19T09:53:39.782Z,11.40
2022-11-19T09:56:10.014Z,10.90
2022-11-19T09:58:43.571Z,11.70
2022-11-19T10:01:15.292Z,11.27
2022-11-19T10:03:49.177Z,11.37
2022-11-19T10:06:31.165Z,11.30
2022-11-19T10:09:25.606Z,11.40
2022-11-19T10:12:09.144Z,11.20
2022-11-19T10:15:10.740Z,10.77
2022-11-19T10:17:52.007Z,10.90
2022-11-19T10:20:45.454Z,10.57
2022-11-19T10:23:19.078Z,10.57
2022-11-19T10:25:49.854Z,10.87
2022-11-19T10:28:22.889Z,11.43
2022-11-19T10:31:00.190Z,9.80
2022-11-19T10:33:35.077Z,9.43
2022-11-19T10:36:07.900Z,10.77
2022-11-19T10:38:47.252Z,9.80
2022-11-19T10:41:24.550Z,9.87
2022-11-19T10:44:00.699Z,10.57
2022-11-19T10:46:30.480Z,10.30
2022-11-19T10:49:00.447Z,9.90
2022-11-19T10:51:31.674Z,9.60
2022-11-19T10:54:02.602Z,10.43
2022-11-19T10:56:39.538Z,9.03
2022-11-19T10:59:14.098Z,9.87
2022-11-19T11:01:46.682Z,9.83
2022-11-19T11:04:20.218Z,8.97
2022-11-19T11:06:54.354Z,9.27
2022-11-19T11:09:34.391Z,9.97
2022-11-19T11:12:32.792Z,11.67
2022-11-19T11:15:09.611Z,9.03
2022-11-19T11:17:39.857Z,8.13
2022-11-19T11:20:24.271Z,9.20
2022-11-19T11:23:05.712Z,8.00
2022-11-19T11:25:34.096Z,10.20
2022-11-19T11:28:08.308Z,9.73
2022-11-19T11:30:36.659Z,8.53
2022-11-19T11:36:03.618Z,8.53
2022-11-19T11:38:32.258Z,8.33
2022-11-19T11:44:04.648Z,6.67
2022-11-19T11:46:43.350Z,7.53
2022-11-19T11:49:27.674Z,7.80
2022-11-19T11:52:20.930Z,7.83
2022-11-19T11:54:58.419Z,7.93
2022-11-19T11:57:28.955Z,8.60
2022-11-19T11:59:58.040Z,7.30
2022-11-19T12:02:31.068Z,6.77
2022-11-19T12:05:02.644Z,7.50
2022-11-19T12:08:05.805Z,7.97
2022-11-19T12:10:46.680Z,8.23
2022-11-19T12:13:55.205Z,6.57
2022-11-19T12:16:40.135Z,6.77
2022-11-19T12:19:26.146Z,7.13
2022-11-19T12:22:04.862Z,5.80
2022-11-19T12:24:57.816Z,6.73
2022-11-19T12:27:36.413Z,6.37
2022-11-19T12:30:10.474Z,7.27
2022-11-19T12:33:20.647Z,6.30
2022-11-19T12:35:58.425Z,6.00
2022-11-19T12:38:42.476Z,5.73
2022-11-19T12:41:50.193Z,7.53
2022-11-19T12:44:30.736Z,6.30
2022-11-19T12:47:08.672Z,5.87
2022-11-19T12:50:16.585Z,6.43
2022-11-19T12:53:22.406Z,6.60
2022-11-19T12:56:04.504Z,5.97
2022-11-19T12:58:45.560Z,7.07
2022-11-19T13:01:19.175Z,7.70
2022-11-19T13:04:03.856Z,6.00
2022-11-19T13:06:39.856Z,6.57
2022-11-19T13:09:17.078Z,6.17
2022-11-19T13:11:51.447Z,6.70
2022-11-19T13:14:29.538Z,5.23
2022-11-19T13:17:00.181Z,5.97
2022-11-19T13:19:32.862Z,5.07
2022-11-19T13:22:08.196Z,5.30
2022-11-19T13:24:42.719Z,5.27
2022-11-19T13:27:20.185Z,6.00
2022-11-19T13:29:57.329Z,5.87
2022-11-19T13:32:32.518Z,6.07
2022-11-19T13:35:12.970Z,6.67
2022-11-19T13:37:55.311Z,7.03
2022-11-19T13:40:32.291Z,6.57
2022-11-19T13:43:31.733Z,7.03
2022-11-19T13:46:16.977Z,6.63
2022-11-19T13:48:50.394Z,7.07
2022-11-19T13:51:28.766Z,7.10
2022-11-19T13:54:03.079Z,6.10
2022-11-19T13:56:47.471Z,6.53
2022-11-19T13:59:34.830Z,6.77
2022-11-19T14:02:58.241Z,6.83
2022-11-19T14:06:06.929Z,6.07
2022-11-19T14:08:55.108Z,6.57
2022-11-19T14:11:57.301Z,6.67
2022-11-19T14:15:14.035Z,6.40
2022-11-19T14:18:09.079Z,6.43
2022-11-19T14:20:57.939Z,7.00
2022-11-19T14:24:04.456Z,7.13
2022-11-19T14:27:19.619Z,7.57
2022-11-19T14:30:01.001Z,6.20
2022-11-19T14:32:43.955Z,6.27
2022-11-19T14:35:40.603Z,6.47
2022-11-19T14:38:32.578Z,6.27
2022-11-19T14:41:28.823Z,6.90
2022-11-19T14:44:35.860Z,7.03
2022-11-19T14:47:35.047Z,6.73
2022-11-19T14:50:06.891Z,7.27
2022-11-19T14:52:40.779Z,7.70
2022-11-19T14:55:24.822Z,7.80
2022-11-19T14:58:00.055Z,7.67
2022-11-19T15:00:32.636Z,7.30
2022-11-19T15:03:02.442Z,7.70
2022-11-19T15:05:34.330Z,7.13
2022-11-19T15:08:47.375Z,7.87
2022-11-19T15:11:17.118Z,8.23
2022-11-19T15:13:47.173Z,8.50
2022-11-19T15:16:17.950Z,8.83
2022-11-19T15:19:19.734Z,8.07
2022-11-19T15:22:23.917Z,7.53
2022-11-19T15:25:26.405Z,8.23
2022-11-19T15:28:21.086Z,7.80
2022-11-19T15:31:21.480Z,7.77
2022-11-19T15:34:19.746Z,7.73
2022-11-19T15:36:51.570Z,10.03
2022-11-19T15:39:26.293Z,11.17
2022-11-19T15:42:02.532Z,9.63
2022-11-19T15:44:40.133Z,8.33
2022-11-19T15:47:15.862Z,9.47
2022-11-19T15:49:45.860Z,9.20
2022-11-19T15:52:22.690Z,10.30
2022-11-19T15:54:52.970Z,9.23
2022-11-19T15:57:27.349Z,10.40
2022-11-19T16:00:00.929Z,10.73
2022-11-19T16:02:37.351Z,11.07
2022-11-19T16:05:09.795Z,13.93
2022-11-19T16:07:38.337Z,14.13
2022-11-19T16:10:13.990Z,14.20
2022-11-19T16:13:11.652Z,14.67
2022-11-19T16:16:05.584Z,22.27
2022-11-19T16:18:34.878Z,21.87
2022-11-19T16:21:03.114Z,13.97
2022-11-19T16:23:52.394Z,14.60
2022-11-19T16:26:20.606Z,14.10
2022-11-19T16:28:50.222Z,15.30
2022-11-19T16:31:18.439Z,12.73
2022-11-19T16:33:54.475Z,12.23
2022-11-19T16:36:22.629Z,13.10
2022-11-19T16:38:53.137Z,12.87
2022-11-19T16:41:41.616Z,13.13
2022-11-19T16:44:15.561Z,12.57
2022-11-19T16:46:45.486Z,12.60
2022-11-19T16:49:32.224Z,13.17
2022-11-19T16:52:02.921Z,12.67
2022-11-19T16:54:51.642Z,12.93
2022-11-19T16:57:23.279Z,13.37
2022-11-19T16:59:56.062Z,14.20
2022-11-19T17:02:30.419Z,12.37
2022-11-19T17:05:08.500Z,14.93
2022-11-19T17:07:37.903Z,15.47
2022-11-19T17:10:30.466Z,16.53
2022-11-19T17:13:03.989Z,17.70
2022-11-19T17:15:39.606Z,17.80
2022-11-19T17:18:17.996Z,16.03
2022-11-19T17:20:56.819Z,15.77
2022-11-19T17:23:26.905Z,29.53
2022-11-19T17:25:58.363Z,25.97
2022-11-19T17:28:38.039Z,29.87
2022-11-19T17:31:17.102Z,28.97
2022-11-19T17:33:56.848Z,29.40
2022-11-19T17:36:27.660Z,27.30
2022-11-19T17:38:56.302Z,26.63
2022-11-19T17:41:45.314Z,23.80
2022-11-19T17:44:35.665Z,25.90
2022-11-19T17:47:21.389Z,24.10
2022-11-19T17:49:50.947Z,23.70
2022-11-19T17:52:24.345Z,20.03
2022-11-19T17:54:54.756Z,20.47
2022-11-19T17:57:23.071Z,19.33
2022-11-19T17:59:51.292Z,20.67
2022-11-19T18:02:23.499Z,18.80
2022-11-19T18:04:51.986Z,19.90
2022-11-19T18:07:21.319Z,23.37
2022-11-19T18:09:50.133Z,20.40
2022-11-19T18:12:20.590Z,20.30
2022-11-19T18:14:53.567Z,21.90
2022-11-19T18:17:27.483Z,23.10
2022-11-19T18:19:56.022Z,20.47
2022-11-19T18:22:24.529Z,21.73
2022-11-19T18:24:53.207Z,28.90
2022-11-19T18:27:22.547Z,25.27
2022-11-19T18:29:50.898Z,28.27
2022-11-19T18:32:19.382Z,25.70
2022-11-19T18:34:48.932Z,23.17
2022-11-19T18:37:17.208Z,20.43
2022-11-19T18:39:45.423Z,21.50
2022-11-19T18:42:13.623Z,20.00
2022-11-19T18:44:43.470Z,21.43
2022-11-19T18:47:14.618Z,20.57
2022-11-19T18:49:43.228Z,19.07
2022-11-19T18:52:15.625Z,20.33
2022-11-19T18:54:44.295Z,19.63
2022-11-19T18:57:13.787Z,19.50
2022-11-19T18:59:42.388Z,20.13
2022-11-19T19:02:11.970Z,20.77
2022-11-19T19:04:40.148Z,19.60
2022-11-19T19:07:08.433Z,19.80
2022-11-19T19:09:41.234Z,21.40
2022-11-19T19:12:19.595Z,20.27
2022-11-19T19:14:51.549Z,27.47
2022-11-19T19:17:20.585Z,29.23
2022-11-19T19:19:49.785Z,30.20
2022-11-19T19:22:18.539Z,33.27
2022-11-19T19:24:50.722Z,31.93
2022-11-19T19:27:22.138Z,30.80
2022-11-19T19:29:50.394Z,30.93
2022-11-19T19:32:18.905Z,30.73
2022-11-19T19:34:47.160Z,36.17
2022-11-19T19:37:15.732Z,32.90
2022-11-19T19:39:44.067Z,35.80
2022-11-19T19:42:13.743Z,33.33
2022-11-19T19:44:42.013Z,35.60
2022-11-19T19:47:10.309Z,33.70
2022-11-19T19:49:39.165Z,33.30
2022-11-19T19:52:07.624Z,33.53
2022-11-19T19:54:36.037Z,35.33
2022-11-19T19:57:04.570Z,36.20
2022-11-19T19:59:34.712Z,30.33
2022-11-19T20:02:03.233Z,29.30
2022-11-19T20:04:33.291Z,28.67
2022-11-19T20:07:01.534Z,25.23
2022-11-19T20:09:30.150Z,24.83
2022-11-19T20:11:59.614Z,24.30
2022-11-19T20:14:27.869Z,23.57
2022-11-19T20:16:57.483Z,24.30
2022-11-19T20:19:25.928Z,28.23
2022-11-19T20:21:54.539Z,23.47
2022-11-19T20:24:22.682Z,24.03
2022-11-19T20:26:50.964Z,22.90
2022-11-19T20:29:21.507Z,24.10
2022-11-19T20:31:51.679Z,26.63
2022-11-19T20:34:21.345Z,26.47
2022-11-19T20:36:49.871Z,23.53
2022-11-19T20:39:18.364Z,23.17
2022-11-19T20:42:04.155Z,22.83
2022-11-19T20:44:32.568Z,24.67
2022-11-19T20:47:03.106Z,24.83
2022-11-19T20:49:35.385Z,24.37
2022-11-19T20:52:04.465Z,23.17
2022-11-19T20:54:33.575Z,21.80
2022-11-19T20:57:02.506Z,23.60
2022-11-19T20:59:30.735Z,26.83
2022-11-19T21:01:58.997Z,23.03
2022-11-19T21:04:28.541Z,31.03
2022-11-19T21:06:58.223Z,28.77
2022-11-19T21:09:28.555Z,28.17
2022-11-19T21:11:57.061Z,28.60
2022-11-19T21:14:25.429Z,28.13
2022-11-19T21:16:53.608Z,26.83
2022-11-19T21:19:21.955Z,24.53
2022-11-19T21:21:50.430Z,25.37
2022-11-19T21:24:20.065Z,25.03
2022-11-19T21:26:48.607Z,24.10
2022-11-19T21:29:17.063Z,25.87
2022-11-19T21:31:47.275Z,26.03
2022-11-19T21:34:18.125Z,28.97
2022-11-19T21:36:48.238Z,32.43
2022-11-19T21:39:19.876Z,31.20
2022-11-19T21:41:48.700Z,27.43
2022-11-19T21:44:21.362Z,29.83
2022-11-19T21:46:50.213Z,27.63
2022-11-19T21:49:18.928Z,28.63
2022-11-19T21:51:47.437Z,26.07
2022-11-19T21:54:15.749Z,24.87
2022-11-19T21:56:45.645Z,24.20
2022-11-19T21:59:14.429Z,26.07
2022-11-19T22:01:42.639Z,26.20
2022-11-19T22:04:13.654Z,24.83
2022-11-19T22:06:42.239Z,25.23
2022-11-19T22:09:10.483Z,23.73
2022-11-19T22:11:38.602Z,29.93
2022-11-19T22:14:10.664Z,27.10
2022-11-19T22:16:41.077Z,26.07
2022-11-19T22:19:09.321Z,26.20
2022-11-19T22:21:40.010Z,24.73
2022-11-19T22:24:08.399Z,23.70
2022-11-19T22:26:36.662Z,25.17
2022-11-19T22:29:04.933Z,25.47
2022-11-19T22:31:34.602Z,23.90
2022-11-19T22:34:03.125Z,25.53
2022-11-19T22:36:33.256Z,24.10
2022-11-19T22:39:01.699Z,24.67
2022-11-19T22:41:31.106Z,23.10
2022-11-19T22:43:59.850Z,22.43
2022-11-19T22:46:29.141Z,22.23
2022-11-19T22:48:58.892Z,21.83
2022-11-19T22:51:27.654Z,22.23
2022-11-19T22:53:56.583Z,22.20
2022-11-19T22:56:29.577Z,22.70
2022-11-19T22:58:59.889Z,21.83
2022-11-19T23:01:31.883Z,22.63
2022-11-19T23:04:05.884Z,22.23
2022-11-19T23:06:34.351Z,23.03
2022-11-19T23:09:03.968Z,22.27
2022-11-19T23:11:49.649Z,22.10
2022-11-19T23:14:20.010Z,23.77
2022-11-19T23:16:48.175Z,25.47
2022-11-19T23:19:19.506Z,25.80
2022-11-19T23:21:48.527Z,26.07
2022-11-19T23:24:17.350Z,25.87
2022-11-19T23:26:45.664Z,25.07
2022-11-19T23:29:13.843Z,24.27
2022-11-19T23:31:42.334Z,25.57
2022-11-19T23:34:10.526Z,25.03
2022-11-19T23:36:42.508Z,26.17
2022-11-19T23:39:19.331Z,24.53
2022-11-19T23:41:49.571Z,24.67
2022-11-19T23:44:17.843Z,23.13
2022-11-19T23:46:46.033Z,23.87
2022-11-19T23:49:14.184Z,23.33
2022-11-19T23:51:43.844Z,24.50
2022-11-19T23:54:14.314Z,22.23
2022-11-19T23:56:42.583Z,23.30
2022-11-19T23:59:10.903Z,23.33
